Strona główna
METAR-TAF:

METAR-TAF

Lotnisko :

Port lotniczy Tabuk

Tabuk, Arabia Saudyjska

Szerokość geograficzna: 28-22N, Długość geograficzna: 036-36E, wysokość: 778 m

Aktualna obserwacja pogody

Raport powstał 36 minut temu, godzina 06:00 UTC
Cisza
Temperatura 9°C
Wilgotność 66%
Ciśnienie 1016 hPa
Widzialność: 7000 m

METAR: OETB 130600Z 00000KT 7000 NSC 09/03 Q1016 NOSIG

czas: 09:36 (06:36 UTC)

Prognoza

Raport powstał 1 godzina i 36 minut temu, godzina 05:00 UTC
Prognoza ważna od 13 godzina 06 UTC do 13 godzina 15 UTC
Wiatr 14 kt od południowy zachód
Widzialność 10 km lub więcej
Brak chmur poniżej 1500 m i brak chmur cumulonimbus

TAF: OETB 130500Z 1306/1315 22014KT CAVOK

Obserwacja i prognoza pogody dla ponad 4000 lotnisk (raport METAR i TAF).

Dostępne stacje oznaczono żółtymi i czerwonymi punktami na mapie.

Najedź kursorem aby zobaczyć nazwę stacji.

Kliknij aby zobaczyć obserwacje i prognozy pogody.

Aby zmienić mapę: kliknij na zielony przycisk z czarnym krzyżykiem, aby powiększyć; na zielony przycisk z myślnikiem, aby pomniejszyć; na zielone strzałki, aby przejść do map sąsiednich.


METAR-TAF: